Time;durP1;ratioP1;P1;durP2;ratioP2;P2;SDS_P1;SDS_P2;PMS_P1;PMS_P2;Temp;Humidity;BMP_temperature;BMP_pressure;BME280_temperature;BME280_humidity;BME280_pressure;Samples;Min_cycle;Max_cycle;Signal;HPM_P1;HPM_P2
2024/03/30 00:01:00;;;;;;;22.83;10.80;;;;;;;;;;5092599;28;20681;-77
2024/03/30 00:03:27;;;;;;;19.83;9.80;;;;;;;;;;5093238;28;20281;-78
2024/03/30 00:06:01;;;;;;;15.03;6.83;;;;;;;;;;5098420;28;20247;-78
2024/03/30 00:08:28;;;;;;;12.13;5.77;;;;;;;;;;5105418;28;20198;-77
2024/03/30 00:10:58;;;;;;;14.17;6.23;;;;;;;;;;5096145;28;20185;-79
2024/03/30 00:13:25;;;;;;;14.30;6.13;;;;;;;;;;5105607;28;20230;-78
2024/03/30 00:15:52;;;;;;;9.57;4.53;;;;;;;;;;5093561;28;20195;-78
2024/03/30 00:18:19;;;;;;;9.87;3.83;;;;;;;;;;5109750;28;20198;-78
2024/03/30 00:20:45;;;;;;;11.70;4.17;;;;;;;;;;5093596;28;20203;-77
2024/03/30 00:23:14;;;;;;;9.87;3.60;;;;;;;;;;5092869;28;20206;-76
2024/03/30 00:25:40;;;;;;;9.90;3.50;;;;;;;;;;5108297;28;20270;-78
2024/03/30 00:28:07;;;;;;;11.10;4.20;;;;;;;;;;5113611;28;20204;-78
2024/03/30 00:30:37;;;;;;;15.27;7.50;;;;;;;;;;5104337;28;20678;-78
2024/03/30 00:33:05;;;;;;;15.33;6.07;;;;;;;;;;5093696;28;20206;-78
2024/03/30 00:35:31;;;;;;;12.50;5.00;;;;;;;;;;5095282;28;20677;-78
2024/03/30 00:37:58;;;;;;;10.40;4.50;;;;;;;;;;5110399;28;20242;-78
2024/03/30 00:40:26;;;;;;;19.13;5.10;;;;;;;;;;5113090;28;20258;-79
2024/03/30 00:42:53;;;;;;;13.13;4.43;;;;;;;;;;5104288;28;20198;-79
2024/03/30 00:45:19;;;;;;;12.17;5.30;;;;;;;;;;5093109;28;20251;-77
2024/03/30 00:47:46;;;;;;;10.17;3.93;;;;;;;;;;5099486;28;20201;-78
2024/03/30 00:50:12;;;;;;;15.43;3.80;;;;;;;;;;5112940;28;20249;-77
2024/03/30 00:52:40;;;;;;;10.97;3.93;;;;;;;;;;5113382;28;20198;-78
2024/03/30 00:55:06;;;;;;;6.80;3.70;;;;;;;;;;5106768;28;20245;-77
2024/03/30 00:57:41;;;;;;;10.53;3.60;;;;;;;;;;5092924;28;20205;-77
2024/03/30 01:00:08;;;;;;;8.50;3.33;;;;;;;;;;5105112;28;20194;-76
2024/03/30 01:02:36;;;;;;;13.37;4.03;;;;;;;;;;5111357;27;20196;-77
2024/03/30 01:05:02;;;;;;;14.97;3.90;;;;;;;;;;5112198;28;20247;-78
2024/03/30 01:07:29;;;;;;;12.97;3.40;;;;;;;;;;5112122;28;20280;-76
2024/03/30 01:09:55;;;;;;;14.07;3.87;;;;;;;;;;5092348;28;20251;-78
2024/03/30 01:12:23;;;;;;;12.77;3.70;;;;;;;;;;5092531;28;20237;-77
2024/03/30 01:14:51;;;;;;;17.87;4.60;;;;;;;;;;5107255;28;20265;-78
2024/03/30 01:17:18;;;;;;;9.40;3.83;;;;;;;;;;5109057;28;20264;-78
2024/03/30 01:19:45;;;;;;;10.90;3.93;;;;;;;;;;5100737;28;20270;-78
2024/03/30 01:22:12;;;;;;;9.07;4.40;;;;;;;;;;5111968;28;20237;-78
2024/03/30 01:24:39;;;;;;;11.63;3.60;;;;;;;;;;5110653;28;20225;-77
2024/03/30 01:27:09;;;;;;;12.43;3.70;;;;;;;;;;5092074;28;20610;-78
2024/03/30 01:29:36;;;;;;;12.87;3.83;;;;;;;;;;5091999;28;20202;-77
2024/03/30 01:32:05;;;;;;;10.30;3.70;;;;;;;;;;5103664;28;20194;-78
2024/03/30 01:34:32;;;;;;;9.93;3.70;;;;;;;;;;5107738;28;20217;-78
2024/03/30 01:36:59;;;;;;;11.63;3.17;;;;;;;;;;5099272;28;20258;-78
2024/03/30 01:39:25;;;;;;;10.30;3.77;;;;;;;;;;5112760;28;20202;-78
2024/03/30 01:41:52;;;;;;;12.10;3.73;;;;;;;;;;5100889;28;20198;-77
2024/03/30 01:44:19;;;;;;;12.17;3.73;;;;;;;;;;5092260;28;20255;-77
2024/03/30 01:46:46;;;;;;;10.60;3.70;;;;;;;;;;5105264;28;20200;-78
2024/03/30 01:49:14;;;;;;;12.47;3.77;;;;;;;;;;5107626;28;20269;-78
2024/03/30 01:51:41;;;;;;;9.20;3.67;;;;;;;;;;5092881;28;20221;-88
2024/03/30 01:54:08;;;;;;;10.53;3.47;;;;;;;;;;5093813;28;20238;-88
2024/03/30 01:56:36;;;;;;;10.10;3.67;;;;;;;;;;5094045;28;20734;-90
2024/03/30 01:59:03;;;;;;;10.67;3.40;;;;;;;;;;5093845;28;20234;-90
2024/03/30 02:01:30;;;;;;;14.10;4.40;;;;;;;;;;5112923;28;20250;-88
2024/03/30 02:03:58;;;;;;;13.57;3.83;;;;;;;;;;5090906;27;20223;-90
2024/03/30 02:06:27;;;;;;;11.80;3.67;;;;;;;;;;5113963;28;20182;-89
2024/03/30 02:08:55;;;;;;;14.37;4.27;;;;;;;;;;5114532;28;20196;-88
2024/03/30 02:11:22;;;;;;;11.67;3.83;;;;;;;;;;5114324;28;20205;-88
2024/03/30 02:13:48;;;;;;;13.17;4.00;;;;;;;;;;5108201;28;20218;-90
2024/03/30 02:16:18;;;;;;;10.00;3.90;;;;;;;;;;5097110;28;20228;-88
2024/03/30 02:18:45;;;;;;;12.73;3.43;;;;;;;;;;5108691;28;20605;-88
2024/03/30 02:21:12;;;;;;;12.53;4.10;;;;;;;;;;5098388;28;20201;-88
2024/03/30 02:23:40;;;;;;;11.17;3.60;;;;;;;;;;5107471;28;20603;-88
2024/03/30 02:26:07;;;;;;;13.87;3.80;;;;;;;;;;5113593;28;20260;-88
2024/03/30 02:28:33;;;;;;;13.27;3.67;;;;;;;;;;5101409;28;20186;-88
2024/03/30 02:31:01;;;;;;;14.73;4.17;;;;;;;;;;5100387;28;20650;-88
2024/03/30 02:33:27;;;;;;;12.13;3.63;;;;;;;;;;5105060;28;20230;-88
2024/03/30 02:35:54;;;;;;;16.43;4.37;;;;;;;;;;5099082;28;20281;-91
2024/03/30 02:38:20;;;;;;;12.20;4.50;;;;;;;;;;5108765;28;20211;-90
2024/03/30 02:40:51;;;;;;;11.10;4.13;;;;;;;;;;5114248;28;20202;-91
2024/03/30 02:43:17;;;;;;;13.87;4.57;;;;;;;;;;5113448;28;20189;-90
2024/03/30 02:45:45;;;;;;;16.03;4.53;;;;;;;;;;5113692;28;20221;-91
2024/03/30 02:48:11;;;;;;;10.53;4.30;;;;;;;;;;5107771;28;20239;-89
2024/03/30 02:50:38;;;;;;;12.17;4.60;;;;;;;;;;5091749;28;20262;-92
2024/03/30 02:53:05;;;;;;;13.00;4.30;;;;;;;;;;5092889;28;20222;-88
2024/03/30 02:55:32;;;;;;;11.37;4.57;;;;;;;;;;5096526;28;20252;-92
2024/03/30 02:58:01;;;;;;;11.60;4.53;;;;;;;;;;5114198;28;20189;-93
2024/03/30 03:00:27;;;;;;;11.17;4.67;;;;;;;;;;5113348;28;20181;-93
2024/03/30 03:02:55;;;;;;;13.50;4.80;;;;;;;;;;5111952;28;20205;-87
2024/03/30 03:05:21;;;;;;;11.23;4.73;;;;;;;;;;5112781;28;20723;-87
2024/03/30 03:07:48;;;;;;;10.33;5.07;;;;;;;;;;5111982;28;20190;-91
2024/03/30 03:10:14;;;;;;;14.87;4.93;;;;;;;;;;5113534;28;20261;-90
2024/03/30 03:12:42;;;;;;;18.97;4.83;;;;;;;;;;5113771;28;20215;-90
2024/03/30 03:15:10;;;;;;;15.27;5.00;;;;;;;;;;5113632;28;20255;-90
2024/03/30 03:17:37;;;;;;;16.87;5.37;;;;;;;;;;5113390;28;20319;-91
2024/03/30 03:20:05;;;;;;;13.13;5.10;;;;;;;;;;5112956;28;20241;-90
2024/03/30 03:22:33;;;;;;;9.47;5.10;;;;;;;;;;5113419;28;20285;-90
2024/03/30 03:24:59;;;;;;;12.47;5.10;;;;;;;;;;5113099;28;20230;-90
2024/03/30 03:27:26;;;;;;;12.07;4.83;;;;;;;;;;5113416;28;20275;-90
2024/03/30 03:29:53;;;;;;;15.37;5.30;;;;;;;;;;5113424;28;20202;-90
2024/03/30 03:32:22;;;;;;;12.63;5.20;;;;;;;;;;5112840;28;20693;-89
2024/03/30 03:34:48;;;;;;;17.63;5.27;;;;;;;;;;5113043;28;20270;-90
2024/03/30 03:37:15;;;;;;;15.20;5.33;;;;;;;;;;5116420;28;20200;-90
2024/03/30 03:39:41;;;;;;;12.53;4.97;;;;;;;;;;5116940;28;20186;-91
2024/03/30 03:42:09;;;;;;;11.40;5.17;;;;;;;;;;5117300;28;20207;-90
2024/03/30 03:44:35;;;;;;;16.13;5.10;;;;;;;;;;5116843;28;20658;-90
2024/03/30 03:47:02;;;;;;;14.47;5.23;;;;;;;;;;5116855;28;20190;-90
2024/03/30 03:49:30;;;;;;;16.63;5.47;;;;;;;;;;5117211;28;20240;-91
2024/03/30 03:51:58;;;;;;;14.80;5.43;;;;;;;;;;5116387;28;20707;-90
2024/03/30 03:54:24;;;;;;;15.93;5.70;;;;;;;;;;5116828;28;20225;-90
2024/03/30 03:56:51;;;;;;;15.67;5.73;;;;;;;;;;5117115;28;20746;-90
2024/03/30 03:59:17;;;;;;;16.00;5.43;;;;;;;;;;5117169;28;20541;-90
2024/03/30 04:01:45;;;;;;;11.33;5.40;;;;;;;;;;5116178;28;20225;-91
2024/03/30 04:04:11;;;;;;;19.00;5.70;;;;;;;;;;5116463;28;20287;-91
2024/03/30 04:06:40;;;;;;;16.80;5.93;;;;;;;;;;5116359;28;20277;-89
2024/03/30 04:09:07;;;;;;;14.57;6.00;;;;;;;;;;5116512;28;20654;-90
2024/03/30 04:11:34;;;;;;;10.73;5.03;;;;;;;;;;5116411;28;20523;-90
2024/03/30 04:14:00;;;;;;;15.00;5.50;;;;;;;;;;5103228;28;20230;-90
2024/03/30 04:16:28;;;;;;;17.30;6.03;;;;;;;;;;5095644;28;20202;-90
2024/03/30 04:18:54;;;;;;;11.20;5.10;;;;;;;;;;5095794;28;20278;-91
2024/03/30 04:21:21;;;;;;;10.33;4.87;;;;;;;;;;5096034;28;20244;-90
2024/03/30 04:23:50;;;;;;;14.13;5.20;;;;;;;;;;5095668;28;20225;-90
2024/03/30 04:26:18;;;;;;;17.10;5.63;;;;;;;;;;5095732;28;20355;-91
2024/03/30 04:28:45;;;;;;;14.20;5.67;;;;;;;;;;5095921;28;20214;-91
2024/03/30 04:31:12;;;;;;;11.07;5.23;;;;;;;;;;5095360;28;20256;-91
2024/03/30 04:33:38;;;;;;;11.83;5.10;;;;;;;;;;5095551;28;20659;-92
2024/03/30 04:36:07;;;;;;;11.83;4.87;;;;;;;;;;5095686;28;20187;-91
2024/03/30 04:38:35;;;;;;;17.00;5.33;;;;;;;;;;5095703;28;20198;-91
2024/03/30 04:41:04;;;;;;;10.10;5.27;;;;;;;;;;5095625;28;20201;-90
2024/03/30 04:43:32;;;;;;;16.50;5.60;;;;;;;;;;5095338;28;20243;-90
2024/03/30 04:45:59;;;;;;;13.77;5.17;;;;;;;;;;5095263;28;20663;-90
2024/03/30 04:48:27;;;;;;;12.73;5.27;;;;;;;;;;5095068;28;20200;-91
2024/03/30 04:50:54;;;;;;;13.67;6.00;;;;;;;;;;5095488;28;20251;-90
2024/03/30 04:53:26;;;;;;;11.13;5.60;;;;;;;;;;5095155;28;20198;-91
2024/03/30 04:55:54;;;;;;;13.17;5.53;;;;;;;;;;5095400;28;20230;-90
2024/03/30 04:58:22;;;;;;;15.77;5.43;;;;;;;;;;5095272;28;20252;-90
2024/03/30 05:00:49;;;;;;;18.67;5.50;;;;;;;;;;5095020;28;20574;-91
2024/03/30 05:03:15;;;;;;;16.90;5.80;;;;;;;;;;5095127;28;20190;-90
2024/03/30 05:05:43;;;;;;;18.37;4.97;;;;;;;;;;5094017;28;20191;-90
2024/03/30 05:08:10;;;;;;;13.37;5.27;;;;;;;;;;5095241;28;20208;-91
2024/03/30 05:10:37;;;;;;;17.77;6.30;;;;;;;;;;5094933;28;20251;-90
2024/03/30 05:13:04;;;;;;;13.57;5.70;;;;;;;;;;5095118;28;20729;-90
2024/03/30 05:15:33;;;;;;;15.47;5.10;;;;;;;;;;5094178;28;20254;-90
2024/03/30 05:17:59;;;;;;;16.30;5.47;;;;;;;;;;5095230;28;20275;-90
2024/03/30 05:23:10;;;;;;;17.17;5.60;;;;;;;;;;5094154;28;20712;-91
2024/03/30 05:25:38;;;;;;;12.83;5.13;;;;;;;;;;5094455;28;20230;-90
2024/03/30 05:28:05;;;;;;;12.63;4.83;;;;;;;;;;5095123;28;20206;-90
2024/03/30 05:30:35;;;;;;;16.63;4.90;;;;;;;;;;5094221;28;20674;-91
2024/03/30 05:33:01;;;;;;;14.97;5.27;;;;;;;;;;5094904;28;20233;-91
2024/03/30 05:35:28;;;;;;;13.57;4.87;;;;;;;;;;5094556;28;20755;-91
2024/03/30 05:37:54;;;;;;;12.07;5.07;;;;;;;;;;5094616;28;20179;-90
2024/03/30 05:40:22;;;;;;;11.43;4.93;;;;;;;;;;5094404;28;20251;-90
2024/03/30 05:42:48;;;;;;;16.00;4.93;;;;;;;;;;5094431;28;20717;-90
2024/03/30 05:45:15;;;;;;;14.70;5.00;;;;;;;;;;5094139;28;20503;-90
2024/03/30 05:47:43;;;;;;;12.60;5.00;;;;;;;;;;5094500;28;20231;-90
2024/03/30 05:50:10;;;;;;;16.97;5.20;;;;;;;;;;5094211;28;20187;-89
2024/03/30 05:52:36;;;;;;;13.93;4.90;;;;;;;;;;5092980;28;20258;-89
2024/03/30 05:55:04;;;;;;;18.93;5.83;;;;;;;;;;5094092;28;20253;-91
2024/03/30 05:57:30;;;;;;;14.33;6.03;;;;;;;;;;5093960;28;20198;-91
2024/03/30 05:59:57;;;;;;;18.60;5.53;;;;;;;;;;5093520;28;20680;-91
2024/03/30 06:02:24;;;;;;;14.53;5.67;;;;;;;;;;5094182;28;20195;-90
2024/03/30 06:04:53;;;;;;;13.00;6.10;;;;;;;;;;5094267;28;20206;-90
2024/03/30 06:07:20;;;;;;;18.63;6.70;;;;;;;;;;5094075;28;20545;-90
2024/03/30 06:09:47;;;;;;;21.43;6.50;;;;;;;;;;5094052;28;20193;-89
2024/03/30 06:12:14;;;;;;;18.40;7.07;;;;;;;;;;5092321;28;20190;-91
2024/03/30 06:14:41;;;;;;;21.37;6.83;;;;;;;;;;5093203;28;20744;-90
2024/03/30 06:17:07;;;;;;;16.67;7.10;;;;;;;;;;5094807;28;20654;-90
2024/03/30 06:19:34;;;;;;;24.80;7.00;;;;;;;;;;5093436;28;20256;-90
2024/03/30 06:22:02;;;;;;;19.70;6.10;;;;;;;;;;5094451;28;20562;-90
2024/03/30 06:24:29;;;;;;;25.93;6.53;;;;;;;;;;5093887;28;20233;-90
2024/03/30 06:26:56;;;;;;;23.23;6.73;;;;;;;;;;5093769;28;20226;-91
2024/03/30 06:29:23;;;;;;;19.37;7.10;;;;;;;;;;5093949;28;20243;-91
2024/03/30 06:31:49;;;;;;;18.60;6.70;;;;;;;;;;5093733;28;20187;-90
2024/03/30 06:34:17;;;;;;;32.33;7.10;;;;;;;;;;5093614;28;20278;-91
2024/03/30 06:36:43;;;;;;;27.90;7.27;;;;;;;;;;5093850;28;20194;-91
2024/03/30 06:39:12;;;;;;;18.60;7.00;;;;;;;;;;5093764;28;20195;-90
2024/03/30 06:44:24;;;;;;;28.80;7.27;;;;;;;;;;5093821;28;20199;-90
2024/03/30 06:46:51;;;;;;;31.47;6.97;;;;;;;;;;5093402;28;20218;-90
2024/03/30 06:49:18;;;;;;;31.73;7.40;;;;;;;;;;5093647;28;20190;-91
2024/03/30 06:51:46;;;;;;;27.30;8.07;;;;;;;;;;5093551;28;20198;-90
2024/03/30 06:54:15;;;;;;;31.00;7.73;;;;;;;;;;5093783;28;20198;-90
2024/03/30 06:56:42;;;;;;;26.13;7.73;;;;;;;;;;5093423;28;20194;-89
2024/03/30 06:59:09;;;;;;;20.83;7.20;;;;;;;;;;5093193;28;20209;-90
2024/03/30 07:01:35;;;;;;;18.03;7.30;;;;;;;;;;5093429;28;20189;-90
2024/03/30 07:04:03;;;;;;;17.30;7.87;;;;;;;;;;5093518;28;20206;-90
2024/03/30 07:06:29;;;;;;;19.33;7.83;;;;;;;;;;5093200;28;20240;-89
2024/03/30 07:08:57;;;;;;;18.30;7.93;;;;;;;;;;5093245;28;20292;-90
2024/03/30 07:11:26;;;;;;;20.40;8.50;;;;;;;;;;5096488;28;20191;-91
2024/03/30 07:13:53;;;;;;;14.53;7.97;;;;;;;;;;5097233;28;20229;-90
2024/03/30 07:16:20;;;;;;;16.87;8.63;;;;;;;;;;5096943;28;20226;-91
2024/03/30 07:18:49;;;;;;;19.87;8.73;;;;;;;;;;5097597;28;20213;-90
2024/03/30 07:21:15;;;;;;;18.23;8.40;;;;;;;;;;5097185;28;20197;-89
2024/03/30 07:23:42;;;;;;;15.90;8.20;;;;;;;;;;5095969;28;20186;-90
2024/03/30 07:26:08;;;;;;;17.67;7.73;;;;;;;;;;5096565;28;20316;-90
2024/03/30 07:28:37;;;;;;;19.77;7.67;;;;;;;;;;5097039;28;20228;-90
2024/03/30 07:31:05;;;;;;;12.17;6.87;;;;;;;;;;5096961;28;20567;-90
2024/03/30 07:33:32;;;;;;;15.57;7.23;;;;;;;;;;5096919;28;20209;-89
2024/03/30 07:35:59;;;;;;;13.50;6.63;;;;;;;;;;5096883;28;20230;-90
2024/03/30 07:38:29;;;;;;;16.23;6.07;;;;;;;;;;5096667;28;20282;-89
2024/03/30 07:40:55;;;;;;;13.37;6.77;;;;;;;;;;5096447;28;20772;-89
2024/03/30 07:43:23;;;;;;;9.23;5.90;;;;;;;;;;5097030;28;20194;-90
2024/03/30 07:45:51;;;;;;;13.03;5.60;;;;;;;;;;5096623;28;20202;-89
2024/03/30 07:48:19;;;;;;;12.93;5.53;;;;;;;;;;5096508;28;20202;-90
2024/03/30 07:50:45;;;;;;;6.93;4.10;;;;;;;;;;5096261;28;20748;-90
2024/03/30 07:53:13;;;;;;;10.83;4.73;;;;;;;;;;5095535;28;20202;-90
2024/03/30 07:55:39;;;;;;;10.70;4.87;;;;;;;;;;5096237;28;20222;-90
2024/03/30 07:58:07;;;;;;;9.13;4.43;;;;;;;;;;5096365;28;20210;-94
2024/03/30 08:00:33;;;;;;;8.83;4.20;;;;;;;;;;5095805;28;20252;-87
2024/03/30 08:03:02;;;;;;;7.23;3.67;;;;;;;;;;5095240;28;20198;-87
2024/03/30 08:05:28;;;;;;;9.10;3.80;;;;;;;;;;5095276;28;20200;-88
2024/03/30 08:07:56;;;;;;;6.93;3.33;;;;;;;;;;5095430;28;20275;-89
2024/03/30 08:10:22;;;;;;;8.70;3.40;;;;;;;;;;5095024;28;20220;-87
2024/03/30 08:12:50;;;;;;;5.87;3.73;;;;;;;;;;5095485;28;20206;-88
2024/03/30 08:15:16;;;;;;;8.87;3.50;;;;;;;;;;5096204;28;20218;-89
2024/03/30 08:17:43;;;;;;;9.07;3.23;;;;;;;;;;5095875;28;20294;-89
2024/03/30 08:20:11;;;;;;;5.33;3.20;;;;;;;;;;5095232;28;20259;-89
2024/03/30 08:22:39;;;;;;;7.00;3.10;;;;;;;;;;5094237;28;20212;-88
2024/03/30 08:25:05;;;;;;;5.43;3.17;;;;;;;;;;5095381;28;20238;-88
2024/03/30 08:27:34;;;;;;;5.30;2.80;;;;;;;;;;5094303;28;20201;-89
2024/03/30 08:30:00;;;;;;;6.57;3.30;;;;;;;;;;5095700;28;20194;-89
2024/03/30 08:32:27;;;;;;;5.93;3.53;;;;;;;;;;5095779;28;20683;-88
2024/03/30 08:34:54;;;;;;;7.37;3.67;;;;;;;;;;5095535;28;20657;-89
2024/03/30 08:37:23;;;;;;;5.00;3.33;;;;;;;;;;5094268;28;20231;-88
2024/03/30 08:39:49;;;;;;;9.77;3.63;;;;;;;;;;5095902;28;20591;-90
2024/03/30 08:42:17;;;;;;;4.87;2.80;;;;;;;;;;5095550;28;20205;-92
2024/03/30 08:44:43;;;;;;;4.57;2.30;;;;;;;;;;5095921;28;20611;-91
2024/03/30 08:47:10;;;;;;;6.57;2.50;;;;;;;;;;5095335;28;20202;-89
2024/03/30 08:49:36;;;;;;;7.03;2.60;;;;;;;;;;5094945;28;20191;-88
2024/03/30 08:52:04;;;;;;;9.07;2.70;;;;;;;;;;5094654;28;20576;-89
2024/03/30 08:54:32;;;;;;;4.13;2.17;;;;;;;;;;5094827;28;20202;-90
2024/03/30 08:56:59;;;;;;;3.80;2.20;;;;;;;;;;5095173;28;20597;-88
2024/03/30 08:59:25;;;;;;;4.50;2.07;;;;;;;;;;5095085;28;20194;-89
2024/03/30 09:01:54;;;;;;;5.93;2.93;;;;;;;;;;5095419;28;20198;-89
2024/03/30 09:04:21;;;;;;;7.77;3.00;;;;;;;;;;5094782;28;20563;-89
2024/03/30 09:06:48;;;;;;;4.43;2.30;;;;;;;;;;5094690;28;20202;-87
2024/03/30 09:09:15;;;;;;;5.03;2.23;;;;;;;;;;5094398;28;20202;-89
2024/03/30 09:11:44;;;;;;;3.80;2.00;;;;;;;;;;5094673;28;20228;-89
2024/03/30 09:14:11;;;;;;;4.90;1.70;;;;;;;;;;5093958;28;20199;-89
2024/03/30 09:16:38;;;;;;;7.03;1.90;;;;;;;;;;5092182;28;20230;-90
2024/03/30 09:19:04;;;;;;;4.43;1.80;;;;;;;;;;5094628;28;20311;-91
2024/03/30 09:21:32;;;;;;;4.60;1.90;;;;;;;;;;5093554;28;20196;-89
2024/03/30 09:23:58;;;;;;;4.67;2.20;;;;;;;;;;5093216;28;20251;-87
2024/03/30 09:26:25;;;;;;;4.80;1.70;;;;;;;;;;5092464;28;20218;-88
2024/03/30 09:28:53;;;;;;;3.17;1.77;;;;;;;;;;5086225;28;20246;-87
2024/03/30 09:31:20;;;;;;;5.20;1.63;;;;;;;;;;5103549;28;20226;-87
2024/03/30 09:33:46;;;;;;;8.83;1.97;;;;;;;;;;5093192;28;20198;-86
2024/03/30 09:36:17;;;;;;;3.60;1.30;;;;;;;;;;5098742;28;20226;-83
2024/03/30 09:38:45;;;;;;;4.87;1.37;;;;;;;;;;5091885;28;20191;-85
2024/03/30 09:41:13;;;;;;;4.87;1.30;;;;;;;;;;5097739;28;20691;-85
2024/03/30 09:43:41;;;;;;;6.50;1.70;;;;;;;;;;5092973;28;20205;-85
2024/03/30 09:46:09;;;;;;;2.67;1.40;;;;;;;;;;5092745;28;20226;-84
2024/03/30 09:48:38;;;;;;;4.63;1.73;;;;;;;;;;5096041;28;20548;-85
2024/03/30 09:51:06;;;;;;;5.43;1.47;;;;;;;;;;5092454;28;20576;-86
2024/03/30 09:53:35;;;;;;;2.63;1.80;;;;;;;;;;5092086;28;20194;-88
2024/03/30 09:56:02;;;;;;;5.47;1.47;;;;;;;;;;5102343;28;20222;-89
2024/03/30 09:58:30;;;;;;;4.30;1.40;;;;;;;;;;5093921;28;20790;-89
2024/03/30 10:00:57;;;;;;;5.20;2.13;;;;;;;;;;5096503;28;20697;-89
2024/03/30 10:03:26;;;;;;;4.40;1.73;;;;;;;;;;5109827;28;20217;-87
2024/03/30 10:05:54;;;;;;;7.03;1.67;;;;;;;;;;5101048;28;20612;-88
2024/03/30 10:08:24;;;;;;;4.40;1.80;;;;;;;;;;5105742;28;20194;-88
2024/03/30 10:10:54;;;;;;;4.50;1.60;;;;;;;;;;5110026;27;20194;-88
2024/03/30 10:13:25;;;;;;;5.20;1.73;;;;;;;;;;5093217;28;20190;-85
2024/03/30 10:15:52;;;;;;;6.23;2.00;;;;;;;;;;5093499;28;20222;-86
2024/03/30 10:18:19;;;;;;;3.97;1.60;;;;;;;;;;5093034;28;20202;-88
2024/03/30 10:20:47;;;;;;;5.13;1.40;;;;;;;;;;5096727;28;20614;-87
2024/03/30 10:23:15;;;;;;;6.93;2.13;;;;;;;;;;5095780;28;20326;-87
2024/03/30 10:25:51;;;;;;;3.83;1.70;;;;;;;;;;5100207;28;20899;-87
2024/03/30 10:28:18;;;;;;;5.20;2.17;;;;;;;;;;5096745;28;20254;-88
2024/03/30 10:30:45;;;;;;;6.57;1.77;;;;;;;;;;5106903;28;20197;-86
2024/03/30 10:33:14;;;;;;;5.43;1.57;;;;;;;;;;5112694;28;20756;-86
2024/03/30 10:35:42;;;;;;;4.97;1.50;;;;;;;;;;5112419;28;20205;-87
2024/03/30 10:38:11;;;;;;;5.37;1.93;;;;;;;;;;5103049;28;20217;-88
2024/03/30 10:40:38;;;;;;;4.77;1.80;;;;;;;;;;5093158;28;20216;-87
2024/03/30 10:43:05;;;;;;;4.17;1.50;;;;;;;;;;5087777;28;20235;-88
2024/03/30 10:45:32;;;;;;;4.33;1.90;;;;;;;;;;5095860;28;20198;-88
2024/03/30 10:47:59;;;;;;;5.03;1.50;;;;;;;;;;5092704;28;20290;-87
2024/03/30 10:50:26;;;;;;;9.67;2.00;;;;;;;;;;5094092;28;20248;-89
2024/03/30 10:52:54;;;;;;;3.27;1.57;;;;;;;;;;5098290;28;20190;-89
2024/03/30 10:55:22;;;;;;;7.50;1.90;;;;;;;;;;5094149;28;20607;-88
2024/03/30 10:57:50;;;;;;;7.10;1.70;;;;;;;;;;5094061;28;20190;-88
2024/03/30 11:00:16;;;;;;;8.27;1.80;;;;;;;;;;5102475;28;20566;-87
2024/03/30 11:02:45;;;;;;;6.40;1.50;;;;;;;;;;5091897;28;20206;-88
2024/03/30 11:05:11;;;;;;;4.00;1.30;;;;;;;;;;5107679;28;20205;-88
2024/03/30 11:07:38;;;;;;;5.50;1.40;;;;;;;;;;5111438;28;20226;-89
2024/03/30 11:10:05;;;;;;;7.07;1.70;;;;;;;;;;5094057;28;20205;-89
2024/03/30 11:12:35;;;;;;;6.50;1.90;;;;;;;;;;5094565;28;20203;-89
2024/03/30 11:15:01;;;;;;;4.10;1.70;;;;;;;;;;5106460;28;21003;-89
2024/03/30 11:17:32;;;;;;;4.80;2.70;;;;;;;;;;5114157;28;20238;-86
2024/03/30 11:20:03;;;;;;;6.87;2.90;;;;;;;;;;5103269;28;20202;-88
2024/03/30 11:22:39;;;;;;;4.90;1.60;;;;;;;;;;5098886;28;20286;-89
2024/03/30 11:25:08;;;;;;;7.38;1.70;;;;;;;;;;5092325;28;20286;-88
2024/03/30 11:27:39;;;;;;;5.20;4.03;;;;;;;;;;5080414;28;20206;-89
2024/03/30 11:30:08;;;;;;;7.33;3.60;;;;;;;;;;5079226;28;20259;-90
2024/03/30 11:32:36;;;;;;;5.87;2.80;;;;;;;;;;5090969;28;20259;-89
2024/03/30 11:35:09;;;;;;;6.43;2.00;;;;;;;;;;5103343;28;20243;-91
2024/03/30 11:37:38;;;;;;;7.70;1.40;;;;;;;;;;5090838;28;20184;-91
2024/03/30 11:40:10;;;;;;;9.53;5.10;;;;;;;;;;5096337;28;20191;-89
2024/03/30 11:42:45;;;;;;;5.00;2.00;;;;;;;;;;5095153;28;20709;-90
2024/03/30 11:45:13;;;;;;;6.47;1.50;;;;;;;;;;5095129;28;20198;-92
2024/03/30 11:47:41;;;;;;;3.22;1.75;;;;;;;;;;5095037;28;20252;-89
2024/03/30 11:50:08;;;;;;;5.55;2.13;;;;;;;;;;5094543;28;20205;-95
2024/03/30 11:52:44;;;;;;;5.05;1.55;;;;;;;;;;5093714;28;20260;-93
2024/03/30 11:55:10;;;;;;;2.97;1.10;;;;;;;;;;5095228;28;20252;-91
2024/03/30 11:57:39;;;;;;;3.80;1.83;;;;;;;;;;5098512;28;20208;-89
2024/03/30 12:00:06;;;;;;;4.38;1.60;;;;;;;;;;5099920;28;20267;-92
2024/03/30 12:02:34;;;;;;;4.40;1.63;;;;;;;;;;5101091;28;20220;-91
2024/03/30 12:05:03;;;;;;;3.28;1.40;;;;;;;;;;5101391;28;20201;-92
2024/03/30 12:07:34;;;;;;;4.57;1.45;;;;;;;;;;5098569;28;20293;-92
2024/03/30 12:10:03;;;;;;;5.20;1.50;;;;;;;;;;5099390;28;20195;-92
2024/03/30 12:12:31;;;;;;;5.35;1.67;;;;;;;;;;5098857;28;20199;-92
2024/03/30 12:14:58;;;;;;;4.63;2.13;;;;;;;;;;5096619;28;20195;-92
2024/03/30 12:17:26;;;;;;;3.57;1.60;;;;;;;;;;5098749;28;20312;-92
2024/03/30 12:19:53;;;;;;;2.73;1.53;;;;;;;;;;5097550;28;20267;-93
2024/03/30 12:22:23;;;;;;;4.30;2.30;;;;;;;;;;5098135;28;20202;-90
2024/03/30 12:24:50;;;;;;;4.05;2.05;;;;;;;;;;5098927;28;20233;-91
2024/03/30 12:27:19;;;;;;;8.45;4.95;;;;;;;;;;5096000;28;20206;-87
2024/03/30 12:29:46;;;;;;;15.32;4.60;;;;;;;;;;5095157;28;20286;-88
2024/03/30 12:32:18;;;;;;;9.13;3.90;;;;;;;;;;5094914;28;20240;-86
2024/03/30 12:34:44;;;;;;;5.93;3.58;;;;;;;;;;5075075;28;20554;-87
2024/03/30 12:37:12;;;;;;;5.60;2.33;;;;;;;;;;5088150;28;20286;-87
2024/03/30 12:39:38;;;;;;;4.80;2.78;;;;;;;;;;5085830;28;20198;-86
2024/03/30 12:42:07;;;;;;;7.65;2.88;;;;;;;;;;5095864;28;20195;-86
2024/03/30 12:44:33;;;;;;;3.80;1.40;;;;;;;;;;5094849;28;20607;-84
2024/03/30 12:47:00;;;;;;;5.30;2.22;;;;;;;;;;5101954;28;20716;-86
2024/03/30 12:49:32;;;;;;;5.53;1.20;;;;;;;;;;5098904;28;20191;-86
2024/03/30 12:51:59;;;;;;;2.60;1.23;;;;;;;;;;5095273;28;20202;-87
2024/03/30 12:54:25;;;;;;;4.20;1.30;;;;;;;;;;5095770;28;20565;-85
2024/03/30 12:56:53;;;;;;;4.53;1.70;;;;;;;;;;5099861;28;20236;-85
2024/03/30 12:59:19;;;;;;;3.47;1.17;;;;;;;;;;5099766;28;20194;-88
2024/03/30 13:01:46;;;;;;;3.53;1.30;;;;;;;;;;5099868;28;20199;-87
2024/03/30 13:04:13;;;;;;;3.65;1.50;;;;;;;;;;5100044;28;20295;-82
2024/03/30 13:06:44;;;;;;;3.53;1.30;;;;;;;;;;5094710;28;20202;-84
2024/03/30 13:09:18;;;;;;;3.92;1.27;;;;;;;;;;5097400;28;20571;-89
2024/03/30 13:11:46;;;;;;;3.78;1.30;;;;;;;;;;5096201;28;20195;-86
2024/03/30 13:14:12;;;;;;;3.28;1.00;;;;;;;;;;5098618;28;20202;-85
2024/03/30 13:16:40;;;;;;;8.68;3.15;;;;;;;;;;5100255;28;20294;-87
2024/03/30 13:19:10;;;;;;;9.52;3.70;;;;;;;;;;5104178;28;20202;-89
2024/03/30 13:21:39;;;;;;;8.10;3.28;;;;;;;;;;5076882;28;20199;-76
2024/03/30 13:24:07;;;;;;;6.07;2.80;;;;;;;;;;5072925;28;20286;-82
2024/03/30 13:26:34;;;;;;;5.15;2.63;;;;;;;;;;5090922;28;20252;-80
2024/03/30 13:29:01;;;;;;;3.67;1.60;;;;;;;;;;5091504;28;20191;-80
2024/03/30 13:31:28;;;;;;;5.22;2.38;;;;;;;;;;5092152;28;20268;-78
2024/03/30 13:33:54;;;;;;;2.70;1.20;;;;;;;;;;5092110;28;20198;-80
2024/03/30 13:36:21;;;;;;;3.30;1.40;;;;;;;;;;5092533;28;20229;-81
2024/03/30 13:38:48;;;;;;;4.85;2.30;;;;;;;;;;5091951;28;20266;-83
2024/03/30 13:41:16;;;;;;;3.72;1.38;;;;;;;;;;5091913;28;20198;-82
2024/03/30 13:43:42;;;;;;;3.15;1.27;;;;;;;;;;5091694;28;20190;-82
2024/03/30 13:46:10;;;;;;;4.95;1.50;;;;;;;;;;5091845;28;20701;-82
2024/03/30 13:48:36;;;;;;;3.05;0.95;;;;;;;;;;5091697;28;20205;-81
2024/03/30 13:51:04;;;;;;;2.67;1.60;;;;;;;;;;5091934;28;20237;-82
2024/03/30 13:53:31;;;;;;;3.95;1.20;;;;;;;;;;5091665;28;20723;-81
2024/03/30 13:55:58;;;;;;;3.22;1.20;;;;;;;;;;5091349;28;20330;-82
2024/03/30 13:58:28;;;;;;;2.83;1.50;;;;;;;;;;5092029;28;20205;-82
2024/03/30 14:00:55;;;;;;;4.13;1.00;;;;;;;;;;5092104;28;20200;-82
2024/03/30 14:03:22;;;;;;;4.32;1.13;;;;;;;;;;5092104;28;20198;-82
2024/03/30 14:05:49;;;;;;;2.90;1.20;;;;;;;;;;5092102;28;20213;-82
2024/03/30 14:08:16;;;;;;;4.50;1.35;;;;;;;;;;5092358;28;20248;-81
2024/03/30 14:10:43;;;;;;;5.50;1.55;;;;;;;;;;5091586;28;20198;-82
2024/03/30 14:13:09;;;;;;;7.20;3.40;;;;;;;;;;5091693;28;20267;-82
2024/03/30 14:15:38;;;;;;;2.08;1.10;;;;;;;;;;5091963;28;20201;-82
2024/03/30 14:18:06;;;;;;;2.70;1.00;;;;;;;;;;5091780;28;20251;-82
2024/03/30 14:20:35;;;;;;;5.63;1.05;;;;;;;;;;5091095;28;20194;-81
2024/03/30 14:23:01;;;;;;;2.42;1.00;;;;;;;;;;5091602;28;20190;-78
2024/03/30 14:25:30;;;;;;;2.67;0.80;;;;;;;;;;5091018;28;20234;-78
2024/03/30 14:27:57;;;;;;;5.40;1.80;;;;;;;;;;5091394;28;20289;-78
2024/03/30 14:30:25;;;;;;;3.20;1.88;;;;;;;;;;5089143;28;20195;-78
2024/03/30 14:32:52;;;;;;;3.97;1.10;;;;;;;;;;5093163;28;20229;-78
2024/03/30 14:35:20;;;;;;;3.17;0.90;;;;;;;;;;5088788;28;20244;-77
2024/03/30 14:37:49;;;;;;;4.95;1.80;;;;;;;;;;5090895;28;20226;-77
2024/03/30 14:40:17;;;;;;;6.50;1.90;;;;;;;;;;5090556;28;20198;-77
2024/03/30 14:42:44;;;;;;;3.47;1.35;;;;;;;;;;5090534;28;20667;-79